createdAt,value
2023-05-17T00:01:08.047Z,4.50
2023-05-17T00:04:11.206Z,4.10
2023-05-17T00:07:14.388Z,5.60
2023-05-17T00:10:17.499Z,5.10
2023-05-17T00:13:20.731Z,4.20
2023-05-17T00:16:23.805Z,5.40
2023-05-17T00:19:26.980Z,7.50
2023-05-17T00:22:30.116Z,10.50
2023-05-17T00:25:33.139Z,4.60
2023-05-17T00:28:36.217Z,4.10
2023-05-17T00:31:39.213Z,5.30
2023-05-17T00:34:42.346Z,4.90
2023-05-17T00:37:48.103Z,5.00
2023-05-17T00:40:51.351Z,4.30
2023-05-17T00:43:54.618Z,4.60
2023-05-17T00:46:59.860Z,5.10
2023-05-17T00:50:03.711Z,4.80
2023-05-17T00:53:07.069Z,7.60
2023-05-17T00:56:10.168Z,5.30
2023-05-17T00:59:14.221Z,4.70
2023-05-17T01:02:18.016Z,5.20
2023-05-17T01:05:21.188Z,4.80
2023-05-17T01:08:24.374Z,5.20
2023-05-17T01:11:39.492Z,4.80
2023-05-17T01:14:52.226Z,5.80
2023-05-17T01:18:12.954Z,6.10
2023-05-17T01:21:45.183Z,5.00
2023-05-17T01:24:54.561Z,5.00
2023-05-17T01:28:00.358Z,5.10
2023-05-17T01:31:03.999Z,6.70
2023-05-17T01:34:10.584Z,6.30
2023-05-17T01:37:13.654Z,5.30
2023-05-17T01:40:18.361Z,6.10
2023-05-17T01:43:35.806Z,6.10
2023-05-17T01:46:43.051Z,6.20
2023-05-17T01:49:51.929Z,5.80
2023-05-17T01:52:59.725Z,6.70
2023-05-17T01:56:12.105Z,7.70
2023-05-17T02:02:27.400Z,5.70
2023-05-17T02:05:30.641Z,7.10
2023-05-17T02:08:33.890Z,6.30
2023-05-17T02:11:37.243Z,5.50
2023-05-17T02:14:40.445Z,5.40
2023-05-17T02:17:43.612Z,4.80
2023-05-17T02:20:46.698Z,4.40
2023-05-17T02:23:51.174Z,5.10
2023-05-17T02:26:55.942Z,5.00
2023-05-17T02:30:02.130Z,7.30
2023-05-17T02:33:05.465Z,5.50
2023-05-17T02:36:08.977Z,4.60
2023-05-17T02:39:12.043Z,4.80
2023-05-17T02:42:15.153Z,3.80
2023-05-17T02:45:18.421Z,5.70
2023-05-17T02:48:22.082Z,5.20
2023-05-17T02:51:25.383Z,5.50
2023-05-17T02:54:28.425Z,4.30
2023-05-17T02:57:32.884Z,3.80
2023-05-17T03:00:36.012Z,4.60
2023-05-17T03:03:39.137Z,5.20
2023-05-17T03:06:42.534Z,4.60
2023-05-17T03:09:45.939Z,5.00
2023-05-17T03:12:49.191Z,5.00
2023-05-17T03:15:54.771Z,5.00
2023-05-17T03:18:58.344Z,5.00
2023-05-17T03:22:01.738Z,6.40
2023-05-17T03:25:06.849Z,5.50
2023-05-17T03:28:10.154Z,6.50
2023-05-17T03:31:13.378Z,5.40
2023-05-17T03:34:16.604Z,10.70
2023-05-17T03:37:19.684Z,9.90
2023-05-17T03:40:23.257Z,5.90
2023-05-17T03:43:26.464Z,6.50
2023-05-17T03:46:29.666Z,6.90
2023-05-17T03:49:33.106Z,6.10
2023-05-17T03:52:36.882Z,6.70
2023-05-17T03:55:40.084Z,5.70
2023-05-17T03:58:43.512Z,5.70
2023-05-17T04:01:47.148Z,6.00
2023-05-17T04:04:51.278Z,5.70
2023-05-17T04:07:54.694Z,5.80
2023-05-17T04:10:57.799Z,6.20
2023-05-17T04:14:00.970Z,8.00
2023-05-17T04:17:04.283Z,6.80
2023-05-17T04:20:07.811Z,6.80
2023-05-17T04:23:11.350Z,6.70
2023-05-17T04:26:15.084Z,7.60
2023-05-17T04:29:19.182Z,8.30
2023-05-17T04:32:23.010Z,7.30
2023-05-17T04:35:26.426Z,8.00
2023-05-17T04:38:30.540Z,6.90
2023-05-17T04:41:33.742Z,7.40
2023-05-17T04:44:38.444Z,7.30
2023-05-17T04:47:41.800Z,5.90
2023-05-17T04:50:46.380Z,6.40
2023-05-17T04:53:49.561Z,5.70
2023-05-17T04:56:53.765Z,5.50
2023-05-17T05:00:15.680Z,5.40
2023-05-17T05:03:23.016Z,5.40
2023-05-17T05:06:26.366Z,5.30
2023-05-17T05:09:29.766Z,5.80
2023-05-17T05:12:33.116Z,6.20
2023-05-17T05:15:36.210Z,6.60
2023-05-17T05:18:40.315Z,5.60
2023-05-17T05:21:46.432Z,5.90
2023-05-17T05:24:49.931Z,5.40
2023-05-17T05:27:53.376Z,5.90
2023-05-17T05:31:02.693Z,7.90
2023-05-17T05:34:11.580Z,6.60
2023-05-17T05:37:16.199Z,9.20
2023-05-17T05:40:21.491Z,6.40
2023-05-17T05:43:24.733Z,6.20
2023-05-17T05:46:27.948Z,5.70
2023-05-17T05:49:31.127Z,5.00
2023-05-17T05:52:34.292Z,5.60
2023-05-17T05:55:41.220Z,5.30
2023-05-17T05:58:45.192Z,13.10
2023-05-17T06:01:48.482Z,14.70
2023-05-17T06:04:51.487Z,10.70
2023-05-17T06:07:54.536Z,10.50
2023-05-17T06:10:57.782Z,11.30
2023-05-17T06:14:01.191Z,8.70
2023-05-17T06:17:04.963Z,9.70
2023-05-17T06:20:09.613Z,10.00
2023-05-17T06:23:13.689Z,12.10
2023-05-17T06:26:17.015Z,10.50
2023-05-17T06:29:20.237Z,10.10
2023-05-17T06:32:23.330Z,9.00
2023-05-17T06:35:26.718Z,9.00
2023-05-17T06:38:29.837Z,9.10
2023-05-17T06:41:32.969Z,10.80
2023-05-17T06:44:36.090Z,10.10
2023-05-17T06:47:39.835Z,7.50
2023-05-17T06:50:43.112Z,10.50
2023-05-17T06:53:46.180Z,10.20
2023-05-17T06:56:49.184Z,7.90
2023-05-17T06:59:52.436Z,8.90
2023-05-17T07:02:55.788Z,10.90
2023-05-17T07:05:59.001Z,9.10
2023-05-17T07:09:02.231Z,10.60
2023-05-17T07:12:06.189Z,17.30
2023-05-17T07:15:09.760Z,9.10
2023-05-17T07:18:12.948Z,11.00
2023-05-17T07:21:17.474Z,12.70
2023-05-17T07:24:21.735Z,11.30
2023-05-17T07:27:27.331Z,12.20
2023-05-17T07:30:30.503Z,14.10
2023-05-17T07:33:33.618Z,12.70
2023-05-17T07:36:36.981Z,11.30
2023-05-17T07:39:42.239Z,14.00
2023-05-17T07:43:25.060Z,11.70
2023-05-17T07:46:26.981Z,13.10
2023-05-17T07:49:30.216Z,13.90
2023-05-17T07:52:32.306Z,12.00
2023-05-17T07:55:35.866Z,14.10
2023-05-17T07:58:37.702Z,15.70
2023-05-17T08:01:39.520Z,17.20
2023-05-17T08:04:44.662Z,13.60
2023-05-17T08:07:46.497Z,9.80
2023-05-17T08:10:49.168Z,11.50
2023-05-17T08:13:50.949Z,9.70
2023-05-17T08:16:52.849Z,12.70
2023-05-17T08:19:54.727Z,10.00
2023-05-17T08:22:56.705Z,11.40
2023-05-17T08:25:58.735Z,10.00
2023-05-17T08:29:04.191Z,10.20
2023-05-17T08:32:07.642Z,12.60
2023-05-17T08:35:13.008Z,9.40
2023-05-17T08:38:14.903Z,11.60
2023-05-17T08:41:16.722Z,14.80
2023-05-17T08:44:20.148Z,10.30
2023-05-17T08:47:29.128Z,8.20
2023-05-17T08:50:34.265Z,11.40
2023-05-17T08:53:36.190Z,12.40
2023-05-17T08:56:42.051Z,10.40
2023-05-17T08:59:49.995Z,9.70
2023-05-17T09:02:51.899Z,11.80
2023-05-17T09:05:57.446Z,8.90
2023-05-17T09:09:04.497Z,12.70
2023-05-17T09:12:09.519Z,11.10
2023-05-17T09:15:20.309Z,12.10
2023-05-17T09:18:34.965Z,11.00
2023-05-17T09:21:37.145Z,12.90
2023-05-17T09:24:40.848Z,11.20
2023-05-17T09:27:42.868Z,9.90
2023-05-17T09:30:47.720Z,11.20
2023-05-17T09:33:50.153Z,11.30
2023-05-17T09:36:54.021Z,10.60
2023-05-17T09:39:56.058Z,10.50
2023-05-17T09:42:58.993Z,11.30
2023-05-17T09:46:00.869Z,12.50
2023-05-17T09:49:03.454Z,11.10
2023-05-17T09:52:07.687Z,12.70
2023-05-17T09:55:11.277Z,16.00
2023-05-17T09:58:13.580Z,11.10
2023-05-17T10:04:22.693Z,12.10
2023-05-17T10:07:26.105Z,12.80
2023-05-17T10:10:30.575Z,13.50
2023-05-17T10:14:05.947Z,14.10
2023-05-17T10:17:09.281Z,13.70
2023-05-17T10:20:13.114Z,11.50
2023-05-17T10:23:16.363Z,9.70
2023-05-17T10:26:20.219Z,9.90
2023-05-17T10:29:22.936Z,12.10
2023-05-17T10:32:26.943Z,14.00
2023-05-17T10:35:30.467Z,11.30
2023-05-17T10:38:41.914Z,13.90
2023-05-17T10:41:47.273Z,13.80
2023-05-17T10:44:49.539Z,15.00
2023-05-17T10:47:52.897Z,15.10
2023-05-17T10:54:17.743Z,12.90
2023-05-17T10:57:49.211Z,25.10
2023-05-17T11:00:55.276Z,10.50
2023-05-17T11:03:57.897Z,8.50
2023-05-17T11:07:28.507Z,8.10
2023-05-17T11:10:31.102Z,7.30
2023-05-17T11:16:36.887Z,8.80
2023-05-17T11:19:38.879Z,12.40
2023-05-17T11:23:04.806Z,10.80
2023-05-17T11:26:31.377Z,8.70
2023-05-17T11:29:33.894Z,10.10
2023-05-17T11:32:35.928Z,8.30
2023-05-17T11:35:39.061Z,6.70
2023-05-17T11:38:41.034Z,6.70
2023-05-17T11:41:50.936Z,7.90
2023-05-17T11:44:56.534Z,10.60
2023-05-17T11:47:58.651Z,8.50
2023-05-17T11:51:02.487Z,6.80
2023-05-17T11:54:06.643Z,9.50
2023-05-17T11:57:10.646Z,7.70
2023-05-17T12:00:13.452Z,7.10
2023-05-17T12:03:16.496Z,6.40
2023-05-17T12:06:18.507Z,7.50
2023-05-17T12:09:22.557Z,7.70
2023-05-17T12:12:25.432Z,10.40
2023-05-17T12:15:30.013Z,6.20
2023-05-17T12:18:37.116Z,7.70
2023-05-17T12:21:39.062Z,12.50
2023-05-17T12:24:42.545Z,10.30
2023-05-17T12:27:44.401Z,9.00
2023-05-17T12:30:51.213Z,11.00
2023-05-17T12:33:53.963Z,7.50
2023-05-17T12:36:56.198Z,11.10
2023-05-17T12:43:03.629Z,8.20
2023-05-17T12:46:12.421Z,9.40
2023-05-17T12:49:14.452Z,13.20
2023-05-17T12:52:17.988Z,8.70
2023-05-17T12:55:19.735Z,9.70
2023-05-17T12:58:21.573Z,8.80
2023-05-17T13:01:23.441Z,11.60
2023-05-17T13:04:33.640Z,10.50
2023-05-17T13:07:35.835Z,15.50
2023-05-17T13:10:37.604Z,16.50
2023-05-17T13:13:40.147Z,11.80
2023-05-17T13:16:42.160Z,10.80
2023-05-17T13:19:44.122Z,11.80
2023-05-17T13:22:46.610Z,13.90
2023-05-17T13:25:48.536Z,12.10
2023-05-17T13:28:50.674Z,12.30
2023-05-17T13:31:52.526Z,10.30
2023-05-17T13:34:54.645Z,13.50
2023-05-17T13:37:57.297Z,13.00
2023-05-17T13:40:59.101Z,12.40
2023-05-17T13:44:01.090Z,9.90
2023-05-17T13:47:03.198Z,13.40
2023-05-17T13:50:05.672Z,13.10
2023-05-17T13:53:08.113Z,12.40
2023-05-17T13:56:10.337Z,10.40
2023-05-17T13:59:12.243Z,13.00
2023-05-17T14:02:14.662Z,11.90
2023-05-17T14:05:17.495Z,10.10
2023-05-17T14:08:19.720Z,11.70
2023-05-17T14:11:21.531Z,16.10
2023-05-17T14:14:25.493Z,13.30
2023-05-17T14:17:28.132Z,13.40
2023-05-17T14:20:30.681Z,10.50
2023-05-17T14:23:34.092Z,18.20
2023-05-17T14:26:36.569Z,13.70
2023-05-17T14:29:38.358Z,12.00
2023-05-17T14:32:40.881Z,11.70
2023-05-17T14:35:42.682Z,15.60
2023-05-17T14:38:44.355Z,14.00
2023-05-17T14:41:46.139Z,14.00
2023-05-17T14:44:47.853Z,15.10
2023-05-17T14:47:49.648Z,11.10
2023-05-17T14:50:52.670Z,15.70
2023-05-17T14:53:54.429Z,22.10
2023-05-17T14:56:56.710Z,14.40
2023-05-17T14:59:59.721Z,12.60
2023-05-17T15:03:01.818Z,13.90
2023-05-17T15:09:13.544Z,14.70
2023-05-17T15:12:15.432Z,17.00
2023-05-17T15:15:17.373Z,15.10
2023-05-17T15:18:19.896Z,16.50
2023-05-17T15:21:21.777Z,12.50
2023-05-17T15:24:23.652Z,12.30
2023-05-17T15:27:25.540Z,14.60
2023-05-17T15:30:27.581Z,13.90
2023-05-17T15:33:30.389Z,13.90
2023-05-17T15:36:32.207Z,12.50
2023-05-17T15:39:37.546Z,11.30
2023-05-17T15:42:39.839Z,12.90
2023-05-17T15:48:43.868Z,13.30
2023-05-17T15:51:46.213Z,15.20
2023-05-17T15:54:49.644Z,13.10
2023-05-17T15:57:51.488Z,15.10
2023-05-17T16:00:54.472Z,10.50
2023-05-17T16:03:56.340Z,13.60
2023-05-17T16:06:58.180Z,14.50
2023-05-17T16:09:59.905Z,9.40
2023-05-17T16:13:02.910Z,16.60
2023-05-17T16:16:05.198Z,15.50
2023-05-17T16:19:07.027Z,13.60
2023-05-17T16:22:09.021Z,12.40
2023-05-17T16:25:12.277Z,13.40
2023-05-17T16:28:14.008Z,15.70
2023-05-17T16:31:15.951Z,16.40
2023-05-17T16:34:17.912Z,22.70
2023-05-17T16:37:19.613Z,12.40
2023-05-17T16:40:21.430Z,21.00
2023-05-17T16:43:23.194Z,14.20
2023-05-17T16:46:25.771Z,19.70
2023-05-17T16:49:29.559Z,17.70
2023-05-17T16:52:31.482Z,26.70
2023-05-17T16:55:35.484Z,22.80
2023-05-17T16:58:37.345Z,26.00
2023-05-17T17:01:39.539Z,24.60
2023-05-17T17:07:45.232Z,17.70
2023-05-17T17:10:46.986Z,18.60
2023-05-17T17:13:49.633Z,20.30
2023-05-17T17:16:51.378Z,15.80
2023-05-17T17:19:53.071Z,18.10
2023-05-17T17:22:55.376Z,27.90
2023-05-17T17:28:59.351Z,21.70
2023-05-17T17:32:01.884Z,16.20
2023-05-17T17:35:04.028Z,17.80
2023-05-17T17:38:06.054Z,18.70
2023-05-17T17:41:09.241Z,15.80
2023-05-17T17:44:11.210Z,15.30
2023-05-17T17:47:13.206Z,15.10
2023-05-17T17:50:15.043Z,16.00
2023-05-17T17:53:16.816Z,16.50
2023-05-17T17:56:18.967Z,15.40
2023-05-17T17:59:21.017Z,19.30
2023-05-17T18:02:22.713Z,17.40
2023-05-17T18:05:25.536Z,15.90
2023-05-17T18:08:27.373Z,18.50
2023-05-17T18:11:29.075Z,19.20
2023-05-17T18:14:30.888Z,20.80
2023-05-17T18:17:32.809Z,18.90
2023-05-17T18:20:34.859Z,20.30
2023-05-17T18:23:37.341Z,15.40
2023-05-17T18:26:39.474Z,23.20
2023-05-17T18:29:41.710Z,16.90
2023-05-17T18:32:43.744Z,15.40
2023-05-17T18:35:45.674Z,23.30
2023-05-17T18:38:47.445Z,22.10
2023-05-17T18:41:49.170Z,17.40
2023-05-17T18:44:50.950Z,24.00
2023-05-17T18:47:52.758Z,27.20
2023-05-17T18:50:56.736Z,34.10
2023-05-17T18:53:58.449Z,32.70
2023-05-17T18:57:00.182Z,24.40
2023-05-17T19:00:02.057Z,26.30
2023-05-17T19:03:03.968Z,24.10
2023-05-17T19:06:05.787Z,20.80
2023-05-17T19:09:07.929Z,16.70
2023-05-17T19:12:09.784Z,19.30
2023-05-17T19:15:11.681Z,18.20
2023-05-17T19:18:13.496Z,17.30
2023-05-17T19:21:15.459Z,9.20
2023-05-17T19:24:17.260Z,16.40
2023-05-17T19:27:19.125Z,18.00
2023-05-17T19:30:20.882Z,28.90
2023-05-17T19:33:23.231Z,30.90
2023-05-17T19:36:25.359Z,27.00
2023-05-17T19:39:27.141Z,27.80
2023-05-17T19:42:28.930Z,34.10
2023-05-17T19:45:30.655Z,30.20
2023-05-17T19:48:32.400Z,26.80
2023-05-17T19:51:34.422Z,18.50
2023-05-17T19:54:36.221Z,16.60
2023-05-17T19:57:38.053Z,13.60
2023-05-17T20:00:39.756Z,18.70
2023-05-17T20:03:41.710Z,17.40
2023-05-17T20:06:43.793Z,17.30
2023-05-17T20:09:45.691Z,15.90
2023-05-17T20:12:47.567Z,13.10
2023-05-17T20:15:49.344Z,22.90
2023-05-17T20:18:51.117Z,15.60
2023-05-17T20:21:53.027Z,15.80
2023-05-17T20:24:57.105Z,14.40
2023-05-17T20:27:59.636Z,16.20
2023-05-17T20:31:01.891Z,17.10
2023-05-17T20:37:06.101Z,18.30
2023-05-17T20:40:09.231Z,16.00
2023-05-17T20:43:11.042Z,15.60
2023-05-17T20:46:13.411Z,21.80
2023-05-17T20:49:16.309Z,16.70
2023-05-17T20:52:24.734Z,18.90
2023-05-17T20:55:39.646Z,17.00
2023-05-17T20:58:41.396Z,15.70
2023-05-17T21:01:43.548Z,17.90
2023-05-17T21:04:45.442Z,18.00
2023-05-17T21:07:49.880Z,16.90
2023-05-17T21:10:52.478Z,16.90
2023-05-17T21:13:54.492Z,16.70
2023-05-17T21:16:56.376Z,14.80
2023-05-17T21:19:58.153Z,17.30
2023-05-17T21:22:59.859Z,21.10
2023-05-17T21:26:01.759Z,16.80
2023-05-17T21:29:03.514Z,19.00
2023-05-17T21:32:05.512Z,15.60
2023-05-17T21:35:07.692Z,20.50
2023-05-17T21:38:09.393Z,17.70
2023-05-17T21:41:11.138Z,16.10
2023-05-17T21:44:12.918Z,16.70
2023-05-17T21:47:14.893Z,16.90
2023-05-17T21:50:16.943Z,15.60
2023-05-17T21:53:18.652Z,13.70
2023-05-17T21:56:21.121Z,18.20
2023-05-17T22:02:26.250Z,14.40
2023-05-17T22:05:28.220Z,14.60
2023-05-17T22:08:31.460Z,16.60
2023-05-17T22:11:37.913Z,15.30
2023-05-17T22:14:42.706Z,14.90
2023-05-17T22:17:51.797Z,18.40
2023-05-17T22:20:54.617Z,15.20
2023-05-17T22:23:56.444Z,13.60
2023-05-17T22:26:58.215Z,16.30
2023-05-17T22:30:00.293Z,16.20
2023-05-17T22:33:02.422Z,17.10
2023-05-17T22:39:05.892Z,13.90
2023-05-17T22:42:08.679Z,13.50
2023-05-17T22:45:14.193Z,15.40
2023-05-17T22:48:16.026Z,13.20
2023-05-17T22:51:18.044Z,14.40
2023-05-17T22:54:20.453Z,14.10
2023-05-17T22:57:22.157Z,14.10
2023-05-17T23:00:24.930Z,15.40
2023-05-17T23:03:26.652Z,15.90
2023-05-17T23:06:31.470Z,17.00
2023-05-17T23:09:33.163Z,13.50
2023-05-17T23:12:36.383Z,16.00
2023-05-17T23:15:38.718Z,15.50
2023-05-17T23:18:40.701Z,14.80
2023-05-17T23:21:42.988Z,20.40
2023-05-17T23:27:48.461Z,14.50
2023-05-17T23:30:52.888Z,20.60
2023-05-17T23:33:54.606Z,15.30
2023-05-17T23:36:56.338Z,14.30
2023-05-17T23:39:58.712Z,17.90
2023-05-17T23:46:02.736Z,14.40
2023-05-17T23:49:05.172Z,16.00
2023-05-17T23:55:12.421Z,14.00
2023-05-17T23:58:14.156Z,15.70
